createdAt,value
2022-08-07T00:02:35.609Z,4.05
2022-08-07T00:04:05.879Z,3.45
2022-08-07T00:06:33.883Z,3.50
2022-08-07T00:09:16.147Z,3.45
2022-08-07T00:11:54.476Z,3.60
2022-08-07T00:14:29.974Z,3.30
2022-08-07T00:17:01.938Z,3.80
2022-08-07T00:19:34.038Z,3.47
2022-08-07T00:22:02.074Z,3.45
2022-08-07T00:24:31.700Z,3.92
2022-08-07T00:27:07.184Z,3.60
2022-08-07T00:29:37.027Z,3.60
2022-08-07T00:32:06.749Z,3.33
2022-08-07T00:37:05.082Z,3.20
2022-08-07T00:42:02.270Z,3.40
2022-08-07T00:44:33.144Z,3.40
2022-08-07T00:47:04.112Z,3.60
2022-08-07T00:50:19.402Z,3.35
2022-08-07T00:52:20.339Z,3.22
2022-08-07T00:54:53.758Z,3.60
2022-08-07T00:57:26.100Z,3.35
2022-08-07T00:59:54.894Z,3.22
2022-08-07T01:02:28.648Z,3.43
2022-08-07T01:04:58.791Z,3.10
2022-08-07T01:07:29.529Z,3.47
2022-08-07T01:10:04.492Z,3.40
2022-08-07T01:12:35.620Z,3.17
2022-08-07T01:15:04.393Z,3.08
2022-08-07T01:17:32.562Z,3.35
2022-08-07T01:20:08.278Z,3.55
2022-08-07T01:22:37.734Z,3.50
2022-08-07T01:25:53.944Z,3.30
2022-08-07T01:28:01.701Z,3.28
2022-08-07T01:30:30.096Z,3.20
2022-08-07T01:32:57.351Z,3.00
2022-08-07T01:35:25.684Z,2.92
2022-08-07T01:38:12.844Z,3.03
2022-08-07T01:43:20.613Z,3.15
2022-08-07T01:45:48.198Z,3.00
2022-08-07T01:48:30.364Z,2.85
2022-08-07T01:51:24.559Z,2.90
2022-08-07T01:54:09.385Z,2.90
2022-08-07T01:58:00.932Z,2.92
2022-08-07T02:00:12.935Z,2.80
2022-08-07T02:03:18.274Z,3.35
2022-08-07T02:06:00.036Z,3.10
2022-08-07T02:08:31.521Z,3.15
2022-08-07T02:11:00.839Z,3.00
2022-08-07T02:13:58.087Z,3.30
2022-08-07T02:16:28.852Z,3.10
2022-08-07T02:20:05.245Z,3.15
2022-08-07T02:21:58.540Z,3.00
2022-08-07T02:24:29.289Z,3.42
2022-08-07T02:27:00.093Z,3.10
2022-08-07T02:29:28.900Z,3.17
2022-08-07T02:31:57.959Z,3.38
2022-08-07T02:34:27.864Z,3.28
2022-08-07T02:36:58.071Z,2.97
2022-08-07T02:39:42.855Z,3.40
2022-08-07T02:42:16.276Z,3.10
2022-08-07T02:44:47.783Z,3.28
2022-08-07T02:47:19.584Z,3.13
2022-08-07T02:49:55.919Z,3.25
2022-08-07T02:52:53.248Z,3.08
2022-08-07T02:55:28.297Z,3.10
2022-08-07T02:58:17.375Z,2.90
2022-08-07T03:00:55.133Z,3.10
2022-08-07T03:03:49.341Z,3.28
2022-08-07T03:06:25.981Z,3.00
2022-08-07T03:09:01.780Z,3.00
2022-08-07T03:11:32.865Z,2.90
2022-08-07T03:14:08.637Z,3.00
2022-08-07T03:16:36.051Z,2.88
2022-08-07T03:19:05.875Z,3.00
2022-08-07T03:21:35.301Z,3.50
2022-08-07T03:24:19.630Z,3.10
2022-08-07T03:26:58.624Z,3.20
2022-08-07T03:29:33.716Z,3.10
2022-08-07T03:32:06.849Z,3.00
2022-08-07T03:34:39.163Z,3.35
2022-08-07T03:37:12.250Z,3.30
2022-08-07T03:39:59.373Z,3.20
2022-08-07T03:42:27.449Z,3.15
2022-08-07T03:44:58.071Z,3.17
2022-08-07T03:47:28.066Z,3.13
2022-08-07T03:49:59.950Z,3.28
2022-08-07T03:52:29.899Z,3.20
2022-08-07T03:55:06.781Z,3.15
2022-08-07T03:58:33.470Z,3.15
2022-08-07T04:00:30.125Z,3.10
2022-08-07T04:02:59.692Z,2.80
2022-08-07T04:05:40.471Z,2.97
2022-08-07T04:08:16.196Z,2.90
2022-08-07T04:10:54.795Z,2.92
2022-08-07T04:14:10.248Z,3.25
2022-08-07T04:16:30.800Z,2.60
2022-08-07T04:19:03.902Z,2.72
2022-08-07T04:21:33.595Z,2.72
2022-08-07T04:24:07.319Z,2.70
2022-08-07T04:26:35.010Z,3.20
2022-08-07T04:29:03.097Z,2.72
2022-08-07T04:31:39.167Z,2.65
2022-08-07T04:34:27.321Z,2.80
2022-08-07T04:37:01.099Z,2.60
2022-08-07T04:39:35.869Z,2.83
2022-08-07T04:42:04.181Z,2.53
2022-08-07T04:44:31.205Z,2.70
2022-08-07T04:47:09.682Z,2.55
2022-08-07T04:49:57.916Z,2.90
2022-08-07T04:52:52.906Z,2.70
2022-08-07T04:58:16.617Z,2.70
2022-08-07T05:00:09.634Z,2.60
2022-08-07T05:02:24.345Z,2.50
2022-08-07T05:05:01.063Z,2.70
2022-08-07T05:07:44.254Z,2.30
2022-08-07T05:10:29.312Z,2.60
2022-08-07T05:13:10.109Z,2.75
2022-08-07T05:15:53.786Z,2.60
2022-08-07T05:18:27.241Z,2.80
2022-08-07T05:21:02.429Z,2.80
2022-08-07T05:23:39.837Z,2.88
2022-08-07T05:26:18.729Z,2.28
2022-08-07T05:28:55.670Z,3.00
2022-08-07T05:31:34.625Z,2.83
2022-08-07T05:34:05.596Z,2.50
2022-08-07T05:36:42.358Z,2.45
2022-08-07T05:40:04.981Z,2.63
2022-08-07T05:42:01.227Z,2.75
2022-08-07T05:44:35.490Z,2.60
2022-08-07T05:47:17.785Z,2.40
2022-08-07T05:49:49.013Z,2.60
2022-08-07T05:52:32.276Z,2.63
2022-08-07T05:55:07.244Z,2.42
2022-08-07T05:57:42.119Z,2.90
2022-08-07T06:00:16.087Z,3.05
2022-08-07T06:02:48.002Z,2.80
2022-08-07T06:05:16.134Z,2.78
2022-08-07T06:08:14.571Z,2.70
2022-08-07T06:10:31.586Z,2.83
2022-08-07T06:13:01.047Z,2.90
2022-08-07T06:15:42.081Z,2.60
2022-08-07T06:18:12.217Z,2.80
2022-08-07T06:20:50.350Z,2.65
2022-08-07T06:24:38.584Z,2.78
2022-08-07T06:26:20.938Z,2.30
2022-08-07T06:28:55.306Z,2.75
2022-08-07T06:31:24.171Z,2.50
2022-08-07T06:34:08.393Z,2.50
2022-08-07T06:36:38.969Z,2.80
2022-08-07T06:40:15.858Z,3.15
2022-08-07T06:42:06.450Z,2.70
2022-08-07T06:44:39.787Z,2.80
2022-08-07T06:47:12.552Z,2.80
2022-08-07T06:49:52.339Z,3.00
2022-08-07T06:52:35.774Z,2.78
2022-08-07T06:55:33.521Z,2.95
2022-08-07T06:58:10.494Z,2.65
2022-08-07T07:00:42.355Z,3.00
2022-08-07T07:03:14.396Z,2.92
2022-08-07T07:06:05.453Z,2.95
2022-08-07T07:08:33.532Z,2.53
2022-08-07T07:11:13.097Z,2.80
2022-08-07T07:13:58.357Z,2.60
2022-08-07T07:16:39.206Z,2.80
2022-08-07T07:19:54.670Z,3.10
2022-08-07T07:22:33.785Z,2.65
2022-08-07T07:25:14.205Z,2.80
2022-08-07T07:28:42.776Z,2.70
2022-08-07T07:31:30.452Z,2.78
2022-08-07T07:34:09.649Z,3.05
2022-08-07T07:36:40.523Z,2.80
2022-08-07T07:39:09.217Z,2.40
2022-08-07T07:42:02.337Z,2.92
2022-08-07T07:44:29.269Z,2.50
2022-08-07T07:47:12.080Z,2.67
2022-08-07T07:50:32.443Z,2.47
2022-08-07T07:52:35.973Z,2.55
2022-08-07T07:55:07.970Z,2.60
2022-08-07T07:57:51.816Z,2.60
2022-08-07T08:00:29.507Z,2.63
2022-08-07T08:03:08.088Z,3.10
2022-08-07T08:05:50.468Z,3.05
2022-08-07T08:08:34.602Z,2.88
2022-08-07T08:11:09.261Z,2.75
2022-08-07T08:13:54.348Z,2.78
2022-08-07T08:16:32.763Z,3.65
2022-08-07T08:19:09.644Z,2.88
2022-08-07T08:22:07.841Z,2.50
2022-08-07T08:25:09.404Z,3.00
2022-08-07T08:27:56.380Z,2.70
2022-08-07T08:30:26.064Z,2.70
2022-08-07T08:32:54.651Z,2.55
2022-08-07T08:35:28.631Z,2.42
2022-08-07T08:38:04.746Z,2.72
2022-08-07T08:40:43.771Z,2.30
2022-08-07T08:43:42.282Z,2.45
2022-08-07T08:46:25.327Z,2.35
2022-08-07T08:49:32.886Z,2.47
2022-08-07T08:52:14.325Z,2.30
2022-08-07T08:55:01.204Z,2.40
2022-08-07T08:57:47.925Z,2.45
2022-08-07T09:00:17.390Z,2.30
2022-08-07T09:03:14.918Z,2.40
2022-08-07T09:05:55.076Z,2.33
2022-08-07T09:08:39.278Z,2.90
2022-08-07T09:11:43.423Z,2.90
2022-08-07T09:14:15.171Z,2.50
2022-08-07T09:17:07.914Z,3.13
2022-08-07T09:20:02.338Z,2.92
2022-08-07T09:24:32.557Z,2.80
2022-08-07T09:26:08.077Z,2.80
2022-08-07T09:30:03.367Z,2.65
2022-08-07T09:31:50.532Z,2.78
2022-08-07T09:34:53.705Z,2.80
2022-08-07T09:37:54.250Z,2.70
2022-08-07T09:40:42.847Z,3.33
2022-08-07T09:47:24.304Z,2.72
2022-08-07T09:50:01.949Z,2.75
2022-08-07T09:52:48.565Z,2.55
2022-08-07T09:56:02.394Z,2.67
2022-08-07T09:59:07.594Z,2.90
2022-08-07T10:02:05.330Z,2.60
2022-08-07T10:04:45.868Z,2.90
2022-08-07T10:07:52.335Z,3.10
2022-08-07T10:10:53.871Z,2.90
2022-08-07T10:13:54.908Z,2.92
2022-08-07T10:19:52.524Z,3.15
2022-08-07T10:23:07.571Z,2.80
2022-08-07T10:26:07.419Z,2.70
2022-08-07T10:28:50.882Z,2.88
2022-08-07T10:31:56.150Z,3.75
2022-08-07T10:34:45.342Z,3.30
2022-08-07T10:37:59.876Z,3.35
2022-08-07T10:40:43.334Z,3.03
2022-08-07T10:43:13.038Z,3.78
2022-08-07T10:45:58.284Z,3.03
2022-08-07T10:48:48.871Z,3.58
2022-08-07T10:51:57.250Z,3.20
2022-08-07T10:54:18.630Z,3.25
2022-08-07T10:57:00.566Z,3.40
2022-08-07T11:00:09.032Z,3.05
2022-08-07T11:03:03.620Z,2.97
2022-08-07T11:06:02.993Z,3.50
2022-08-07T11:08:39.933Z,3.35
2022-08-07T11:11:24.512Z,3.05
2022-08-07T11:14:43.409Z,3.20
2022-08-07T11:16:54.735Z,2.90
2022-08-07T11:19:51.917Z,3.40
2022-08-07T11:22:46.293Z,3.38
2022-08-07T11:25:16.408Z,3.78
2022-08-07T11:31:13.501Z,3.30
2022-08-07T11:34:04.142Z,2.75
2022-08-07T11:37:24.538Z,3.20
2022-08-07T11:40:24.522Z,3.00
2022-08-07T11:43:04.338Z,2.92
2022-08-07T11:46:08.357Z,2.80
2022-08-07T11:49:50.777Z,2.80
2022-08-07T11:52:29.344Z,2.83
2022-08-07T11:55:19.015Z,3.25
2022-08-07T12:01:22.265Z,3.13
2022-08-07T12:04:04.724Z,3.35
2022-08-07T12:06:51.805Z,3.20
2022-08-07T12:09:51.066Z,3.08
2022-08-07T12:12:24.363Z,3.42
2022-08-07T12:15:01.266Z,3.38
2022-08-07T12:17:58.860Z,3.95
2022-08-07T12:20:46.410Z,3.53
2022-08-07T12:24:04.921Z,3.40
2022-08-07T12:26:40.545Z,3.13
2022-08-07T12:29:37.787Z,7.20
2022-08-07T12:32:20.988Z,3.22
2022-08-07T12:34:56.223Z,3.30
2022-08-07T12:37:28.311Z,3.50
2022-08-07T12:40:46.809Z,3.50
2022-08-07T12:43:10.114Z,3.58
2022-08-07T12:46:08.195Z,4.18
2022-08-07T12:48:55.090Z,3.80
2022-08-07T12:51:46.561Z,3.38
2022-08-07T12:54:37.878Z,3.90
2022-08-07T12:57:09.686Z,4.88
2022-08-07T12:59:54.939Z,3.80
2022-08-07T13:02:37.714Z,4.30
2022-08-07T13:06:04.429Z,4.10
2022-08-07T13:11:16.131Z,3.50
2022-08-07T13:14:19.216Z,3.35
2022-08-07T13:17:02.420Z,3.10
2022-08-07T13:20:04.888Z,3.47
2022-08-07T13:22:40.096Z,3.13
2022-08-07T13:25:29.629Z,3.15
2022-08-07T13:28:11.281Z,3.95
2022-08-07T13:30:48.977Z,3.58
2022-08-07T13:34:31.001Z,3.73
2022-08-07T13:36:28.710Z,3.55
2022-08-07T13:40:34.291Z,3.50
2022-08-07T13:42:27.993Z,3.50
2022-08-07T13:45:40.632Z,3.60
2022-08-07T13:48:08.125Z,3.05
2022-08-07T13:51:00.141Z,3.53
2022-08-07T13:53:24.034Z,3.15
2022-08-07T13:55:54.326Z,3.25
2022-08-07T13:58:56.308Z,3.70
2022-08-07T14:01:51.215Z,3.60
2022-08-07T14:04:29.731Z,3.40
2022-08-07T14:07:09.616Z,3.38
2022-08-07T14:10:16.503Z,4.00
2022-08-07T14:12:36.162Z,3.33
2022-08-07T14:15:16.710Z,3.63
2022-08-07T14:18:15.800Z,3.92
2022-08-07T14:20:49.091Z,3.85
2022-08-07T14:23:59.278Z,3.80
2022-08-07T14:26:28.495Z,3.45
2022-08-07T14:29:08.517Z,4.00
2022-08-07T14:31:56.110Z,4.07
2022-08-07T14:34:32.018Z,3.70
2022-08-07T14:37:03.185Z,4.53
2022-08-07T14:40:15.784Z,3.67
2022-08-07T14:42:31.347Z,3.78
2022-08-07T14:45:21.766Z,3.45
2022-08-07T14:47:53.069Z,4.05
2022-08-07T14:50:27.988Z,4.00
2022-08-07T14:52:57.210Z,3.70
2022-08-07T14:55:35.863Z,3.55
2022-08-07T14:58:31.778Z,3.72
2022-08-07T15:01:22.031Z,3.45
2022-08-07T15:03:53.415Z,3.42
2022-08-07T15:06:29.301Z,3.60
2022-08-07T15:09:58.953Z,3.22
2022-08-07T15:12:01.580Z,3.30
2022-08-07T15:14:30.861Z,3.60
2022-08-07T15:20:30.339Z,4.05
2022-08-07T15:22:31.447Z,3.50
2022-08-07T15:25:18.504Z,3.60
2022-08-07T15:28:33.019Z,3.42
2022-08-07T15:31:05.238Z,3.65
2022-08-07T15:33:38.632Z,3.42
2022-08-07T15:36:10.669Z,3.95
2022-08-07T15:38:51.460Z,3.50
2022-08-07T15:42:46.871Z,3.67
2022-08-07T15:44:23.597Z,3.90
2022-08-07T15:50:05.634Z,3.50
2022-08-07T15:52:36.605Z,3.50
2022-08-07T15:55:09.007Z,3.38
2022-08-07T15:57:48.544Z,3.70
2022-08-07T16:00:32.233Z,3.33
2022-08-07T16:03:05.349Z,3.40
2022-08-07T16:05:34.528Z,3.58
2022-08-07T16:08:31.978Z,3.95
2022-08-07T16:11:33.807Z,3.50
2022-08-07T16:14:19.920Z,3.88
2022-08-07T16:18:02.030Z,3.80
2022-08-07T16:20:33.494Z,3.78
2022-08-07T16:23:53.019Z,3.70
2022-08-07T16:26:06.794Z,3.60
2022-08-07T16:30:09.272Z,3.75
2022-08-07T16:31:58.542Z,3.58
2022-08-07T16:34:48.301Z,3.80
2022-08-07T16:38:03.448Z,3.75
2022-08-07T16:40:33.329Z,3.40
2022-08-07T16:43:21.782Z,3.47
2022-08-07T16:47:05.621Z,3.20
2022-08-07T16:50:28.246Z,3.67
2022-08-07T16:52:41.669Z,3.63
2022-08-07T16:55:17.718Z,3.30
2022-08-07T16:58:02.061Z,3.20
2022-08-07T17:00:42.370Z,3.30
2022-08-07T17:03:19.547Z,3.40
2022-08-07T17:06:42.727Z,3.30
2022-08-07T17:10:05.448Z,3.40
2022-08-07T17:12:33.903Z,3.60
2022-08-07T17:15:19.918Z,3.50
2022-08-07T17:17:47.507Z,3.70
2022-08-07T17:20:37.358Z,3.13
2022-08-07T17:23:35.993Z,3.58
2022-08-07T17:26:22.569Z,3.53
2022-08-07T17:28:57.283Z,3.30
2022-08-07T17:31:44.234Z,3.28
2022-08-07T17:34:57.075Z,3.42
2022-08-07T17:38:06.078Z,3.28
2022-08-07T17:41:12.342Z,3.20
2022-08-07T17:44:01.622Z,3.42
2022-08-07T17:47:09.055Z,3.47
2022-08-07T17:50:16.628Z,3.13
2022-08-07T17:53:59.654Z,3.35
2022-08-07T17:56:13.617Z,3.40
2022-08-07T17:58:56.935Z,3.30
2022-08-07T18:01:36.867Z,3.15
2022-08-07T18:04:34.695Z,3.58
2022-08-07T18:07:20.234Z,3.47
2022-08-07T18:10:05.856Z,3.35
2022-08-07T18:12:55.593Z,3.40
2022-08-07T18:15:32.814Z,3.45
2022-08-07T18:18:46.695Z,3.45
2022-08-07T18:21:37.088Z,3.40
2022-08-07T18:27:11.741Z,3.38
2022-08-07T18:30:05.702Z,3.50
2022-08-07T18:33:11.976Z,3.35
2022-08-07T18:35:57.401Z,3.50
2022-08-07T18:38:58.894Z,3.25
2022-08-07T18:41:48.863Z,3.38
2022-08-07T18:45:44.168Z,3.30
2022-08-07T18:48:00.765Z,3.65
2022-08-07T18:50:47.076Z,3.33
2022-08-07T18:53:39.259Z,3.70
2022-08-07T18:56:40.665Z,3.47
2022-08-07T18:59:46.965Z,3.38
2022-08-07T19:02:52.628Z,3.28
2022-08-07T19:06:01.852Z,2.97
2022-08-07T19:08:29.012Z,3.00
2022-08-07T19:11:15.535Z,3.03
2022-08-07T19:14:17.361Z,3.30
2022-08-07T19:17:05.612Z,3.13
2022-08-07T19:19:50.190Z,3.20
2022-08-07T19:22:30.345Z,2.90
2022-08-07T19:25:05.682Z,2.75
2022-08-07T19:28:57.061Z,3.40
2022-08-07T19:31:04.458Z,3.95
2022-08-07T19:33:18.956Z,3.00
2022-08-07T19:36:01.815Z,2.90
2022-08-07T19:38:34.110Z,3.17
2022-08-07T19:41:02.753Z,2.97
2022-08-07T19:43:48.612Z,2.90
2022-08-07T19:46:26.793Z,3.10
2022-08-07T19:49:57.581Z,2.67
2022-08-07T19:52:09.869Z,2.95
2022-08-07T19:54:56.556Z,2.97
2022-08-07T19:58:03.045Z,2.97
2022-08-07T20:00:36.602Z,2.80
2022-08-07T20:03:35.453Z,3.17
2022-08-07T20:06:03.572Z,2.63
2022-08-07T20:08:34.527Z,2.70
2022-08-07T20:11:15.087Z,2.70
2022-08-07T20:13:56.529Z,2.92
2022-08-07T20:16:36.450Z,2.80
2022-08-07T20:19:10.118Z,2.75
2022-08-07T20:21:46.619Z,3.03
2022-08-07T20:24:28.619Z,2.65
2022-08-07T20:27:02.697Z,2.50
2022-08-07T20:29:48.338Z,2.42
2022-08-07T20:32:40.388Z,2.63
2022-08-07T20:35:15.919Z,2.65
2022-08-07T20:37:59.113Z,2.70
2022-08-07T20:40:34.650Z,2.83
2022-08-07T20:43:09.494Z,2.40
2022-08-07T20:46:26.007Z,2.60
2022-08-07T20:48:34.679Z,2.60
2022-08-07T20:51:04.111Z,2.58
2022-08-07T20:54:03.946Z,2.55
2022-08-07T20:56:29.049Z,3.15
2022-08-07T20:59:01.782Z,2.25
2022-08-07T21:01:45.829Z,2.45
2022-08-07T21:04:22.370Z,2.40
2022-08-07T21:06:55.330Z,2.38
2022-08-07T21:09:35.338Z,2.70
2022-08-07T21:12:28.916Z,2.20
2022-08-07T21:14:59.710Z,2.33
2022-08-07T21:18:03.269Z,2.38
2022-08-07T21:20:29.701Z,2.10
2022-08-07T21:23:08.138Z,2.10
2022-08-07T21:25:38.898Z,2.22
2022-08-07T21:28:50.103Z,2.20
2022-08-07T21:32:41.918Z,2.33
2022-08-07T21:34:46.106Z,2.30
2022-08-07T21:37:57.886Z,2.30
2022-08-07T21:40:41.101Z,2.20
2022-08-07T21:43:23.268Z,2.30
2022-08-07T21:46:24.582Z,2.28
2022-08-07T21:49:15.165Z,2.10
2022-08-07T21:52:01.713Z,2.20
2022-08-07T21:54:34.480Z,2.15
2022-08-07T21:57:31.279Z,2.20
2022-08-07T22:00:22.074Z,2.00
2022-08-07T22:03:16.707Z,2.00
2022-08-07T22:06:04.030Z,1.70
2022-08-07T22:08:46.474Z,2.03
2022-08-07T22:11:18.406Z,2.40
2022-08-07T22:13:55.101Z,1.90
2022-08-07T22:17:00.125Z,2.20
2022-08-07T22:19:37.119Z,2.10
2022-08-07T22:22:29.153Z,1.83
2022-08-07T22:25:07.496Z,2.15
2022-08-07T22:28:07.464Z,2.10
2022-08-07T22:31:05.610Z,2.30
2022-08-07T22:33:56.254Z,1.80
2022-08-07T22:36:38.474Z,1.90
2022-08-07T22:39:28.872Z,1.92
2022-08-07T22:42:54.097Z,1.88
2022-08-07T22:45:11.020Z,1.75
2022-08-07T22:48:13.666Z,2.00
2022-08-07T22:51:36.705Z,2.03
2022-08-07T22:54:20.237Z,1.92
2022-08-07T22:57:17.025Z,1.80
2022-08-07T23:00:13.601Z,1.80
2022-08-07T23:03:02.343Z,2.03
2022-08-07T23:06:08.273Z,2.10
2022-08-07T23:10:06.454Z,2.15
2022-08-07T23:12:32.753Z,1.90
2022-08-07T23:16:05.432Z,1.73
2022-08-07T23:18:42.334Z,1.60
2022-08-07T23:21:37.016Z,5.13
2022-08-07T23:24:05.888Z,2.20
2022-08-07T23:26:59.184Z,1.80
2022-08-07T23:30:36.128Z,1.88
2022-08-07T23:34:36.192Z,1.85
2022-08-07T23:36:17.231Z,1.88
2022-08-07T23:39:14.941Z,1.88
2022-08-07T23:42:07.055Z,1.70
2022-08-07T23:44:55.980Z,1.55
2022-08-07T23:47:42.110Z,1.95
2022-08-07T23:50:35.368Z,1.80
2022-08-07T23:53:51.576Z,1.60
2022-08-07T23:56:26.871Z,1.80
2022-08-07T23:59:10.693Z,1.80
